Hauptseite
METAR-TAF:

METAR-TAF

Flughäfen :

Flughafen Rostock-Laage

Rostock, Deutschland

Breite: 53-55N, Länge: 012-17E, Höhe: 40 m

Beobachtung

Neuester Wetterbericht von vor 52 Minuten, um 22:20 UTC
Wind 4 kt aus Südost
Temperatur 4°C
Luftfeuchtigkeit 87%
Luftdruck 1002 hPa
Sichtweite: 8000 m

METAR: ETNL 122220Z AUTO 14004KT 8000 // ////// 04/02 Q1002 ///

Zeit: 00:12 (23:12 UTC)

Prognose

Neuester Wetterbericht von vor 6 Stunden und 2 Minuten, um 17:10 UTC
Gültige Prognose vom 12 um 18 UTC bis 13 um 06 UTC
Wind 8 kt aus Süd
Sichtweite 10 km oder mehr
Aufgelockert bewölkt in der Höhe von 2500 ft
Übergehend zu
vom 12 um 18 UTC bis 12 um 19 UTC
Wind 10 kt aus Süd/Südost
Sichtweite 10 km oder mehr
Durchbrochene Bewölkung in der Höhe von 2500 ft

TAF: ETNL 121710Z 1218/1306 19008KT 9999 NSW SCT025 BECMG 1218/1219 16010KT 9999 NSW BKN025 BY ETGL

Wetterbeobachtungen und Prognosen von mehr als 4000 Flughäfen (METAR und TAF Bericht).

Die verfügbaren Stationen werden durch gelbe und rote Markierungen auf der Karte dargestellt.

Führen Sie die Maus auf sie, um den Namen der Station zu sehen.

Darauf klicken, um die Beobachtung von Wetterbeobachtungen und Prognosen zu sehen.

Um die Karte zu ändern : klicken Sie auf den grünen Tasten mit einem schwarzen Kreuz Zum Vergrößern, auf den grünen Button mit einem Gedankenstrich zu verkleinern, oder auf die grünen Pfeile für benachbarte Karten.


METAR-TAF: